createdAt,value
2022-08-05T00:00:56.198Z,26.51
2022-08-05T00:03:45.218Z,26.65
2022-08-05T00:06:28.962Z,26.40
2022-08-05T00:09:00.100Z,26.26
2022-08-05T00:11:30.335Z,26.52
2022-08-05T00:14:12.955Z,26.42
2022-08-05T00:16:52.466Z,26.48
2022-08-05T00:19:33.432Z,26.72
2022-08-05T00:22:11.495Z,26.45
2022-08-05T00:24:42.384Z,26.50
2022-08-05T00:27:16.598Z,26.94
2022-08-05T00:29:43.685Z,26.92
2022-08-05T00:32:15.509Z,27.03
2022-08-05T00:35:05.728Z,26.95
2022-08-05T00:37:51.394Z,26.92
2022-08-05T00:40:27.286Z,26.97
2022-08-05T00:43:02.684Z,27.10
2022-08-05T00:45:42.944Z,27.31
2022-08-05T00:48:14.196Z,27.12
2022-08-05T00:50:44.172Z,27.67
2022-08-05T00:54:01.430Z,28.06
2022-08-05T00:56:08.489Z,27.84
2022-08-05T00:58:38.771Z,27.68
2022-08-05T01:01:09.624Z,27.92
2022-08-05T01:03:38.269Z,27.79
2022-08-05T01:06:05.741Z,27.92
2022-08-05T01:08:43.437Z,28.13
2022-08-05T01:11:13.556Z,28.43
2022-08-05T01:13:57.704Z,28.42
2022-08-05T01:16:27.893Z,28.46
2022-08-05T01:18:56.761Z,28.63
2022-08-05T01:21:25.434Z,28.66
2022-08-05T01:24:13.152Z,28.44
2022-08-05T01:26:41.311Z,28.51
2022-08-05T01:29:08.797Z,28.86
2022-08-05T01:31:44.805Z,28.75
2022-08-05T01:34:12.991Z,28.92
2022-08-05T01:36:48.189Z,29.24
2022-08-05T01:39:36.846Z,29.02
2022-08-05T01:42:09.607Z,28.88
2022-08-05T01:44:36.619Z,28.98
2022-08-05T01:47:05.132Z,29.41
2022-08-05T01:50:00.343Z,29.03
2022-08-05T01:52:25.106Z,28.78
2022-08-05T01:54:51.998Z,28.89
2022-08-05T01:58:18.880Z,28.94
2022-08-05T02:00:11.565Z,28.91
2022-08-05T02:02:39.282Z,28.89
2022-08-05T02:05:18.747Z,28.96
2022-08-05T02:08:00.352Z,29.07
2022-08-05T02:10:32.221Z,29.13
2022-08-05T02:13:15.748Z,29.18
2022-08-05T02:15:50.356Z,28.96
2022-08-05T02:18:32.234Z,29.07
2022-08-05T02:21:03.794Z,29.08
2022-08-05T02:23:51.799Z,29.34
2022-08-05T02:26:28.517Z,29.43
2022-08-05T02:28:58.229Z,29.43
2022-08-05T02:31:34.621Z,29.55
2022-08-05T02:34:02.819Z,29.57
2022-08-05T02:39:09.821Z,29.60
2022-08-05T02:41:57.455Z,29.56
2022-08-05T02:44:26.339Z,29.70
2022-08-05T02:47:00.280Z,29.96
2022-08-05T02:49:36.879Z,29.86
2022-08-05T02:52:05.147Z,29.91
2022-08-05T02:54:36.019Z,29.83
2022-08-05T02:57:05.138Z,29.75
2022-08-05T02:59:50.310Z,30.42
2022-08-05T03:02:17.375Z,30.42
2022-08-05T03:04:44.610Z,30.46
2022-08-05T03:07:24.624Z,30.95
2022-08-05T03:09:58.792Z,32.00
2022-08-05T03:12:28.518Z,33.76
2022-08-05T03:14:55.440Z,33.08
2022-08-05T03:17:27.319Z,33.35
2022-08-05T03:19:58.602Z,33.80
2022-08-05T03:22:32.833Z,33.48
2022-08-05T03:25:31.560Z,33.43
2022-08-05T03:28:00.141Z,33.24
2022-08-05T03:30:30.266Z,33.61
2022-08-05T03:33:00.908Z,33.78
2022-08-05T03:35:27.939Z,33.58
2022-08-05T03:37:54.677Z,33.76
2022-08-05T03:40:24.077Z,33.89
2022-08-05T03:42:51.670Z,33.91
2022-08-05T03:45:21.661Z,33.41
2022-08-05T03:47:49.846Z,33.50
2022-08-05T03:50:16.633Z,33.28
2022-08-05T03:55:00.126Z,34.34
2022-08-05T03:56:01.680Z,34.25
2022-08-05T03:58:16.348Z,34.14
2022-08-05T04:00:44.304Z,34.03
2022-08-05T04:03:28.280Z,34.27
2022-08-05T04:05:55.851Z,34.46
2022-08-05T04:08:34.689Z,34.61
2022-08-05T04:11:02.821Z,33.99
2022-08-05T04:13:53.596Z,33.95
2022-08-05T04:16:24.085Z,34.02
2022-08-05T04:18:54.400Z,34.41
2022-08-05T04:22:09.849Z,34.57
2022-08-05T04:24:08.923Z,34.67
2022-08-05T04:26:36.169Z,34.89
2022-08-05T04:29:07.227Z,34.77
2022-08-05T04:31:38.469Z,35.01
2022-08-05T04:34:31.897Z,34.66
2022-08-05T04:36:57.993Z,34.10
2022-08-05T04:39:24.719Z,34.29
2022-08-05T04:41:54.429Z,34.16
2022-08-05T04:44:30.701Z,34.04
2022-08-05T04:47:09.561Z,34.15
2022-08-05T04:49:39.147Z,34.04
2022-08-05T04:52:27.696Z,33.93
2022-08-05T04:54:57.419Z,34.34
2022-08-05T04:57:29.120Z,34.53
2022-08-05T04:59:59.017Z,35.60
2022-08-05T05:02:37.136Z,35.54
2022-08-05T05:05:26.296Z,35.33
2022-08-05T05:07:56.659Z,35.83
2022-08-05T05:10:29.583Z,35.38
2022-08-05T05:12:58.846Z,35.09
2022-08-05T05:15:57.577Z,34.86
2022-08-05T05:18:12.905Z,35.15
2022-08-05T05:20:40.895Z,35.66
2022-08-05T05:23:20.026Z,35.88
2022-08-05T05:25:47.851Z,35.67
2022-08-05T05:28:14.486Z,35.83
2022-08-05T05:30:42.634Z,35.87
2022-08-05T05:33:17.312Z,36.01
2022-08-05T05:35:47.001Z,35.57
2022-08-05T05:38:14.653Z,35.19
2022-08-05T05:40:51.200Z,34.70
2022-08-05T05:43:56.615Z,34.18
2022-08-05T05:46:17.616Z,33.80
2022-08-05T05:48:45.972Z,33.43
2022-08-05T05:51:15.581Z,33.28
2022-08-05T05:53:54.521Z,33.03
2022-08-05T05:59:10.915Z,32.69
2022-08-05T06:01:57.175Z,32.23
2022-08-05T06:04:24.908Z,32.58
2022-08-05T06:06:51.957Z,32.69
2022-08-05T06:09:25.944Z,32.71
2022-08-05T06:12:02.711Z,32.78
2022-08-05T06:14:34.658Z,33.16
2022-08-05T06:17:22.301Z,32.81
2022-08-05T06:19:56.807Z,33.41
2022-08-05T06:22:26.349Z,33.80
2022-08-05T06:24:53.292Z,33.79
2022-08-05T06:27:20.012Z,34.03
2022-08-05T06:30:17.919Z,34.44
2022-08-05T06:32:50.552Z,34.35
2022-08-05T06:36:02.999Z,33.91
2022-08-05T06:38:07.137Z,33.74
2022-08-05T06:40:42.023Z,33.60
2022-08-05T06:43:57.536Z,33.48
2022-08-05T06:46:06.931Z,33.23
2022-08-05T06:48:47.451Z,32.90
2022-08-05T06:51:29.075Z,32.41
2022-08-05T06:53:57.411Z,31.99
2022-08-05T06:56:26.262Z,31.05
2022-08-05T06:58:53.617Z,30.90
2022-08-05T07:01:32.433Z,31.17
2022-08-05T07:04:02.282Z,31.00
2022-08-05T07:06:32.989Z,30.61
2022-08-05T07:09:09.650Z,30.61
2022-08-05T07:11:39.873Z,30.03
2022-08-05T07:14:06.682Z,30.05
2022-08-05T07:22:18.635Z,29.71
2022-08-05T07:24:53.714Z,30.07
2022-08-05T07:27:21.619Z,30.17
2022-08-05T07:30:24.186Z,30.28
2022-08-05T07:32:39.031Z,30.56
2022-08-05T07:36:01.624Z,30.64
2022-08-05T07:37:53.494Z,30.59
2022-08-05T07:40:32.251Z,31.13
2022-08-05T07:43:04.702Z,31.23
2022-08-05T07:45:43.434Z,31.24
2022-08-05T07:49:00.446Z,31.32
2022-08-05T07:51:36.397Z,31.68
2022-08-05T07:53:59.283Z,31.96
2022-08-05T07:57:00.586Z,32.04
2022-08-05T07:59:15.511Z,32.55
2022-08-05T08:01:52.357Z,32.46
2022-08-05T08:04:38.137Z,31.90
2022-08-05T08:07:07.354Z,32.41
2022-08-05T08:09:35.132Z,32.37
2022-08-05T08:12:14.330Z,32.29
2022-08-05T08:14:48.780Z,32.14
2022-08-05T08:17:18.522Z,31.98
2022-08-05T08:20:43.862Z,31.69
2022-08-05T08:22:38.985Z,32.22
2022-08-05T08:25:16.155Z,32.19
2022-08-05T08:27:45.069Z,31.78
2022-08-05T08:30:28.572Z,31.44
2022-08-05T08:32:56.884Z,30.71
2022-08-05T08:35:26.764Z,31.28
2022-08-05T08:37:54.426Z,30.96
2022-08-05T08:40:23.488Z,31.09
2022-08-05T08:42:52.752Z,30.37
2022-08-05T08:45:27.033Z,30.18
2022-08-05T08:48:12.805Z,29.99
2022-08-05T08:51:03.960Z,30.06
2022-08-05T08:53:30.492Z,29.81
2022-08-05T08:56:05.517Z,29.92
2022-08-05T08:58:44.015Z,29.52
2022-08-05T09:01:17.114Z,30.14
2022-08-05T09:03:45.199Z,30.97
2022-08-05T09:06:17.226Z,30.55
2022-08-05T09:08:47.075Z,30.69
2022-08-05T09:11:15.165Z,30.88
2022-08-05T09:14:09.277Z,30.63
2022-08-05T09:16:28.526Z,30.70
2022-08-05T09:18:56.105Z,31.07
2022-08-05T09:22:22.751Z,32.01
2022-08-05T09:26:54.760Z,31.61
2022-08-05T09:29:30.899Z,30.22
2022-08-05T09:32:40.851Z,29.62
2022-08-05T09:34:45.629Z,28.76
2022-08-05T09:37:15.180Z,27.48
2022-08-05T09:39:52.274Z,27.41
2022-08-05T09:42:24.351Z,28.10
2022-08-05T09:44:56.039Z,28.47
2022-08-05T09:47:25.674Z,28.57
2022-08-05T09:50:01.247Z,28.33
2022-08-05T09:52:32.448Z,28.31
2022-08-05T09:55:55.018Z,27.89
2022-08-05T09:57:48.606Z,28.04
2022-08-05T10:00:19.487Z,27.59
2022-08-05T10:02:50.233Z,27.95
2022-08-05T10:05:17.997Z,28.40
2022-08-05T10:08:36.791Z,28.49
2022-08-05T10:10:36.279Z,28.39
2022-08-05T10:13:09.859Z,28.13
2022-08-05T10:15:39.123Z,27.68
2022-08-05T10:18:08.052Z,27.76
2022-08-05T10:20:44.093Z,27.26
2022-08-05T10:23:34.300Z,27.81
2022-08-05T10:25:59.508Z,27.15
2022-08-05T10:28:30.350Z,27.47
2022-08-05T10:32:47.817Z,27.77
2022-08-05T10:33:54.054Z,27.54
2022-08-05T10:36:23.609Z,27.58
2022-08-05T10:38:53.891Z,28.26
2022-08-05T10:41:23.634Z,28.03
2022-08-05T10:43:52.888Z,28.00
2022-08-05T10:46:24.081Z,27.92
2022-08-05T10:48:57.276Z,27.48
2022-08-05T10:51:28.936Z,27.30
2022-08-05T10:54:01.908Z,27.58
2022-08-05T10:56:32.641Z,26.14
2022-08-05T10:59:07.192Z,27.15
2022-08-05T11:01:55.303Z,26.97
2022-08-05T11:04:30.911Z,26.94
2022-08-05T11:06:59.158Z,26.36
2022-08-05T11:09:39.074Z,26.46
2022-08-05T11:12:17.189Z,26.12
2022-08-05T11:15:11.426Z,26.46
2022-08-05T11:18:09.598Z,26.09
2022-08-05T11:20:19.108Z,24.95
2022-08-05T11:22:50.052Z,24.61
2022-08-05T11:26:04.686Z,23.58
2022-08-05T11:28:07.911Z,23.59
2022-08-05T11:30:36.915Z,23.54
2022-08-05T11:33:13.669Z,24.56
2022-08-05T11:36:02.799Z,23.79
2022-08-05T11:38:37.327Z,23.64
2022-08-05T11:41:54.729Z,24.16
2022-08-05T11:44:08.391Z,23.09
2022-08-05T11:47:10.196Z,23.47
2022-08-05T11:49:34.578Z,23.89
2022-08-05T11:52:11.421Z,24.16
2022-08-05T11:54:41.305Z,24.15
2022-08-05T11:57:24.806Z,24.04
2022-08-05T11:59:53.003Z,23.98
2022-08-05T12:02:29.936Z,24.43
2022-08-05T12:05:00.163Z,24.39
2022-08-05T12:08:10.445Z,24.32
2022-08-05T12:10:14.026Z,22.67
2022-08-05T12:12:58.115Z,22.40
2022-08-05T12:15:38.050Z,22.27
2022-08-05T12:18:10.650Z,22.23
2022-08-05T12:20:42.743Z,22.54
2022-08-05T12:23:14.229Z,22.14
2022-08-05T12:25:41.212Z,22.23
2022-08-05T12:28:08.911Z,22.84
2022-08-05T12:30:45.860Z,22.41
2022-08-05T12:33:27.362Z,22.38
2022-08-05T12:35:55.015Z,21.74
2022-08-05T12:38:22.293Z,21.39
2022-08-05T12:40:58.549Z,22.53
2022-08-05T12:43:27.414Z,21.82
2022-08-05T12:46:00.806Z,21.40
2022-08-05T12:48:32.971Z,21.54
2022-08-05T12:50:59.780Z,21.50
2022-08-05T12:53:33.033Z,21.11
2022-08-05T12:56:03.879Z,21.42
2022-08-05T12:58:49.211Z,21.45
2022-08-05T13:02:04.060Z,22.19
2022-08-05T13:04:04.588Z,22.16
2022-08-05T13:06:34.592Z,21.99
2022-08-05T13:09:01.221Z,21.92
2022-08-05T13:12:01.219Z,21.67
2022-08-05T13:14:15.332Z,21.26
2022-08-05T13:16:48.566Z,20.67
2022-08-05T13:19:18.639Z,20.95
2022-08-05T13:21:47.926Z,20.94
2022-08-05T13:24:27.559Z,20.94
2022-08-05T13:27:11.204Z,20.94
2022-08-05T13:29:59.393Z,20.72
2022-08-05T13:32:39.396Z,20.82
2022-08-05T13:35:10.729Z,20.72
2022-08-05T13:37:38.511Z,20.59
2022-08-05T13:40:16.337Z,20.46
2022-08-05T13:42:55.697Z,20.10
2022-08-05T13:45:33.942Z,19.78
2022-08-05T13:48:08.753Z,20.59
2022-08-05T13:50:51.630Z,20.15
2022-08-05T13:53:20.277Z,20.71
2022-08-05T13:55:50.121Z,21.33
2022-08-05T13:58:30.760Z,22.00
2022-08-05T14:00:58.079Z,22.04
2022-08-05T14:03:26.594Z,21.91
2022-08-05T14:06:25.636Z,21.25
2022-08-05T14:08:42.989Z,20.58
2022-08-05T14:11:20.175Z,20.46
2022-08-05T14:13:48.114Z,20.00
2022-08-05T14:16:19.108Z,20.34
2022-08-05T14:18:48.220Z,20.02
2022-08-05T14:22:07.517Z,20.35
2022-08-05T14:24:03.395Z,21.00
2022-08-05T14:26:37.039Z,21.07
2022-08-05T14:29:15.742Z,21.25
2022-08-05T14:32:02.557Z,21.08
2022-08-05T14:34:35.061Z,20.47
2022-08-05T14:37:04.625Z,19.69
2022-08-05T14:39:49.463Z,19.51
2022-08-05T14:42:23.511Z,19.37
2022-08-05T14:44:52.575Z,19.65
2022-08-05T14:47:58.426Z,19.38
2022-08-05T14:50:18.293Z,19.43
2022-08-05T14:52:53.010Z,19.45
2022-08-05T14:55:24.992Z,20.14
2022-08-05T14:57:54.771Z,21.45
2022-08-05T15:00:27.916Z,22.08
2022-08-05T15:02:58.206Z,22.40
2022-08-05T15:05:30.042Z,22.23
2022-08-05T15:08:38.056Z,22.79
2022-08-05T15:11:01.433Z,22.96
2022-08-05T15:13:28.613Z,22.72
2022-08-05T15:16:13.197Z,22.92
2022-08-05T15:18:43.570Z,22.90
2022-08-05T15:21:14.209Z,23.18
2022-08-05T15:23:41.652Z,23.18
2022-08-05T15:26:08.596Z,22.84
2022-08-05T15:28:37.718Z,22.67
2022-08-05T15:31:09.534Z,22.70
2022-08-05T15:34:04.022Z,22.61
2022-08-05T15:36:25.868Z,22.61
2022-08-05T15:40:58.917Z,22.39
2022-08-05T15:41:55.698Z,22.33
2022-08-05T15:44:24.384Z,22.22
2022-08-05T15:46:56.349Z,22.08
2022-08-05T15:49:53.398Z,22.15
2022-08-05T15:52:16.214Z,22.19
2022-08-05T15:54:57.667Z,22.14
2022-08-05T15:57:26.110Z,22.37
2022-08-05T16:00:00.423Z,22.78
2022-08-05T16:02:29.507Z,22.65
2022-08-05T16:04:56.531Z,22.53
2022-08-05T16:07:23.381Z,22.52
2022-08-05T16:09:50.842Z,22.67
2022-08-05T16:12:25.654Z,23.27
2022-08-05T16:14:53.404Z,23.61
2022-08-05T16:17:20.039Z,23.25
2022-08-05T16:20:04.800Z,23.34
2022-08-05T16:22:41.121Z,23.28
2022-08-05T16:25:09.769Z,23.27
2022-08-05T16:27:59.936Z,23.48
2022-08-05T16:30:26.244Z,24.29
2022-08-05T16:32:56.028Z,24.85
2022-08-05T16:35:24.857Z,25.70
2022-08-05T16:38:15.303Z,26.37
2022-08-05T16:40:52.340Z,26.16
2022-08-05T16:43:29.356Z,26.51
2022-08-05T16:46:08.137Z,26.48
2022-08-05T16:48:47.192Z,26.29
2022-08-05T16:51:17.728Z,26.58
2022-08-05T16:54:05.615Z,27.46
2022-08-05T16:56:31.968Z,27.17
2022-08-05T16:58:58.904Z,27.68
2022-08-05T17:01:27.723Z,28.68
2022-08-05T17:04:15.994Z,28.36
2022-08-05T17:06:45.449Z,27.88
2022-08-05T17:09:20.196Z,28.32
2022-08-05T17:11:49.738Z,29.25
2022-08-05T17:14:22.367Z,29.03
2022-08-05T17:17:01.676Z,27.99
2022-08-05T17:19:30.040Z,27.70
2022-08-05T17:22:00.561Z,28.17
2022-08-05T17:24:40.344Z,28.35
2022-08-05T17:27:13.155Z,28.98
2022-08-05T17:29:47.175Z,28.69
2022-08-05T17:32:18.996Z,28.82
2022-08-05T17:37:40.181Z,31.04
2022-08-05T17:40:14.270Z,31.88
2022-08-05T17:42:43.138Z,32.00
2022-08-05T17:45:20.559Z,30.71
2022-08-05T17:47:53.615Z,31.03
2022-08-05T17:50:28.952Z,29.77
2022-08-05T17:52:58.626Z,29.20
2022-08-05T17:55:34.665Z,28.61
2022-08-05T17:58:06.932Z,28.52
2022-08-05T18:03:28.180Z,29.44
2022-08-05T18:06:04.925Z,30.39
2022-08-05T18:08:31.640Z,30.09
2022-08-05T18:11:00.881Z,30.44
2022-08-05T18:13:36.694Z,30.32
2022-08-05T18:16:13.558Z,29.45
2022-08-05T18:18:40.612Z,29.54
2022-08-05T18:21:13.248Z,30.22
2022-08-05T18:23:47.165Z,29.92
2022-08-05T18:26:14.023Z,29.67
2022-08-05T18:28:44.858Z,29.84
2022-08-05T18:31:14.941Z,30.65
2022-08-05T18:33:47.291Z,29.83
2022-08-05T18:36:19.202Z,30.55
2022-08-05T18:38:47.075Z,29.91
2022-08-05T18:41:56.809Z,30.65
2022-08-05T18:44:06.448Z,31.33
2022-08-05T18:46:37.105Z,31.07
2022-08-05T18:49:11.407Z,31.43
2022-08-05T18:52:05.820Z,32.13
2022-08-05T18:54:27.618Z,33.00
2022-08-05T18:56:57.857Z,32.49
2022-08-05T18:59:43.838Z,32.37
2022-08-05T19:02:38.035Z,33.60
2022-08-05T19:06:05.722Z,34.39
2022-08-05T19:07:53.421Z,32.49
2022-08-05T19:10:28.243Z,32.94
2022-08-05T19:12:56.286Z,32.13
2022-08-05T19:15:58.138Z,31.76
2022-08-05T19:18:20.624Z,31.51
2022-08-05T19:27:16.916Z,30.73
2022-08-05T19:29:57.386Z,31.12
2022-08-05T19:32:45.614Z,30.92
2022-08-05T19:35:17.985Z,31.55
2022-08-05T19:38:06.421Z,31.66
2022-08-05T19:40:35.758Z,32.75
2022-08-05T19:43:05.340Z,31.80
2022-08-05T19:45:36.480Z,30.93
2022-08-05T19:48:04.046Z,31.26
2022-08-05T19:50:32.472Z,31.30
2022-08-05T19:53:10.517Z,31.77
2022-08-05T19:56:15.399Z,30.89
2022-08-05T19:58:29.231Z,30.98
2022-08-05T20:00:58.923Z,31.11
2022-08-05T20:03:26.089Z,30.79
2022-08-05T20:05:52.841Z,30.51
2022-08-05T20:08:24.555Z,30.29
2022-08-05T20:10:51.301Z,29.70
2022-08-05T20:13:30.308Z,29.35
2022-08-05T20:16:05.366Z,29.31
2022-08-05T20:18:35.094Z,29.48
2022-08-05T20:21:06.537Z,29.56
2022-08-05T20:23:42.285Z,30.39
2022-08-05T20:26:21.217Z,31.37
2022-08-05T21:00:21.296Z,38.74
2022-08-05T21:02:43.735Z,39.25
2022-08-05T21:05:18.856Z,38.54
2022-08-05T21:07:51.834Z,37.97
2022-08-05T21:10:19.422Z,38.21
2022-08-05T21:12:58.075Z,38.94
2022-08-05T21:15:34.081Z,38.36
2022-08-05T21:18:00.778Z,38.83
2022-08-05T21:20:33.300Z,38.92
2022-08-05T21:23:01.093Z,39.44
2022-08-05T21:31:24.614Z,40.67
2022-08-05T21:33:52.026Z,40.84
2022-08-05T21:36:30.036Z,42.24
2022-08-05T21:38:59.746Z,40.95
2022-08-05T21:41:32.861Z,41.48
2022-08-05T21:44:03.904Z,42.39
2022-08-05T21:46:32.188Z,41.97
2022-08-05T21:49:01.568Z,42.55
2022-08-05T21:52:16.707Z,42.56
2022-08-05T21:54:15.488Z,42.16
2022-08-05T21:56:51.376Z,42.28
2022-08-05T21:59:23.893Z,41.60
2022-08-05T22:01:54.543Z,41.85
2022-08-05T22:04:25.234Z,42.12
2022-08-05T22:09:45.874Z,43.55
2022-08-05T22:12:20.955Z,42.44
2022-08-05T22:14:53.364Z,42.02
2022-08-05T22:17:20.345Z,42.58
2022-08-05T22:20:00.849Z,41.84
2022-08-05T22:22:33.815Z,41.95
2022-08-05T22:25:01.574Z,42.06
2022-08-05T22:28:09.914Z,41.95
2022-08-05T22:30:22.419Z,41.48
2022-08-05T22:32:49.465Z,42.38
2022-08-05T22:35:16.899Z,42.00
2022-08-05T22:37:58.753Z,41.85
2022-08-05T22:40:26.069Z,40.91
2022-08-05T22:42:53.227Z,40.66
2022-08-05T22:45:25.307Z,41.36
2022-08-05T22:47:55.294Z,41.54
2022-08-05T22:50:26.839Z,41.86
2022-08-05T22:52:54.764Z,42.44
2022-08-05T22:55:21.810Z,42.45
2022-08-05T22:57:48.987Z,42.38
2022-08-05T23:00:18.214Z,42.00
2022-08-05T23:02:48.297Z,40.52
2022-08-05T23:05:17.089Z,40.42
2022-08-05T23:07:49.494Z,40.08
2022-08-05T23:10:19.960Z,40.40
2022-08-05T23:12:47.870Z,40.15
2022-08-05T23:15:19.139Z,40.18
2022-08-05T23:18:01.528Z,39.18
2022-08-05T23:20:29.242Z,38.45
2022-08-05T23:22:56.590Z,37.62
2022-08-05T23:25:50.962Z,37.68
2022-08-05T23:28:12.411Z,38.38
2022-08-05T23:30:40.086Z,38.27
2022-08-05T23:33:22.245Z,38.33
2022-08-05T23:35:55.831Z,38.04
2022-08-05T23:38:23.011Z,38.58
2022-08-05T23:40:52.429Z,38.33
2022-08-05T23:43:25.335Z,38.50
2022-08-05T23:46:20.369Z,38.11
2022-08-05T23:49:00.490Z,38.15
2022-08-05T23:51:28.516Z,37.88
2022-08-05T23:54:00.952Z,37.32
2022-08-05T23:56:28.750Z,37.96
2022-08-05T23:58:58.507Z,37.47
